sensor_id;sensor_type;location;lat;lon;timestamp;temperature;humidity
17174;DHT22;8702;48.130;-1.696;2022-08-01T00:02:18;22.60;99.90
17174;DHT22;8702;48.130;-1.696;2022-08-01T00:04:45;22.70;99.90
17174;DHT22;8702;48.130;-1.696;2022-08-01T00:07:12;22.70;99.90
17174;DHT22;8702;48.130;-1.696;2022-08-01T00:09:40;22.80;99.90
17174;DHT22;8702;48.130;-1.696;2022-08-01T00:12:07;22.60;99.90
17174;DHT22;8702;48.130;-1.696;2022-08-01T00:14:34;22.70;99.90
17174;DHT22;8702;48.130;-1.696;2022-08-01T00:17:02;22.60;99.90
17174;DHT22;8702;48.130;-1.696;2022-08-01T00:19:29;22.60;99.90
17174;DHT22;8702;48.130;-1.696;2022-08-01T00:21:56;22.60;99.90
17174;DHT22;8702;48.130;-1.696;2022-08-01T00:24:23;22.60;99.90
17174;DHT22;8702;48.130;-1.696;2022-08-01T00:26:51;22.60;99.90
17174;DHT22;8702;48.130;-1.696;2022-08-01T00:29:18;22.60;99.90
17174;DHT22;8702;48.130;-1.696;2022-08-01T00:31:45;22.50;99.90
17174;DHT22;8702;48.130;-1.696;2022-08-01T00:34:12;22.50;99.90
17174;DHT22;8702;48.130;-1.696;2022-08-01T00:36:39;22.50;99.90
17174;DHT22;8702;48.130;-1.696;2022-08-01T00:39:06;22.60;99.90
17174;DHT22;8702;48.130;-1.696;2022-08-01T00:41:33;22.60;99.90
17174;DHT22;8702;48.130;-1.696;2022-08-01T00:44:03;22.60;99.90
17174;DHT22;8702;48.130;-1.696;2022-08-01T00:46:30;22.50;99.90
17174;DHT22;8702;48.130;-1.696;2022-08-01T00:48:58;22.50;99.90
17174;DHT22;8702;48.130;-1.696;2022-08-01T00:51:25;22.60;99.90
17174;DHT22;8702;48.130;-1.696;2022-08-01T00:53:53;22.50;99.90
17174;DHT22;8702;48.130;-1.696;2022-08-01T00:56:21;22.40;99.90
17174;DHT22;8702;48.130;-1.696;2022-08-01T00:58:48;22.40;99.90
17174;DHT22;8702;48.130;-1.696;2022-08-01T01:01:17;22.40;99.90
17174;DHT22;8702;48.130;-1.696;2022-08-01T01:03:46;22.30;99.90
17174;DHT22;8702;48.130;-1.696;2022-08-01T01:06:35;22.20;99.90
17174;DHT22;8702;48.130;-1.696;2022-08-01T01:09:25;22.20;99.90
17174;DHT22;8702;48.130;-1.696;2022-08-01T01:12:02;22.30;99.90
17174;DHT22;8702;48.130;-1.696;2022-08-01T01:14:38;22.40;99.90
17174;DHT22;8702;48.130;-1.696;2022-08-01T01:17:15;22.40;99.90
17174;DHT22;8702;48.130;-1.696;2022-08-01T01:19:48;22.30;99.90
17174;DHT22;8702;48.130;-1.696;2022-08-01T01:22:24;22.40;99.90
17174;DHT22;8702;48.130;-1.696;2022-08-01T01:25:10;22.40;99.90
17174;DHT22;8702;48.130;-1.696;2022-08-01T01:27:50;22.50;99.90
17174;DHT22;8702;48.130;-1.696;2022-08-01T01:30:19;22.50;99.90
17174;DHT22;8702;48.130;-1.696;2022-08-01T01:32:50;22.40;99.90
17174;DHT22;8702;48.130;-1.696;2022-08-01T01:35:22;22.40;99.90
17174;DHT22;8702;48.130;-1.696;2022-08-01T01:37:55;22.40;99.90
17174;DHT22;8702;48.130;-1.696;2022-08-01T01:40:25;22.30;99.90
17174;DHT22;8702;48.130;-1.696;2022-08-01T01:42:55;22.20;99.90
17174;DHT22;8702;48.130;-1.696;2022-08-01T01:45:25;22.20;99.90
17174;DHT22;8702;48.130;-1.696;2022-08-01T01:47:53;22.20;99.90
17174;DHT22;8702;48.130;-1.696;2022-08-01T01:50:21;22.30;99.90
17174;DHT22;8702;48.130;-1.696;2022-08-01T01:52:50;22.30;99.90
17174;DHT22;8702;48.130;-1.696;2022-08-01T01:55:19;22.20;99.90
17174;DHT22;8702;48.130;-1.696;2022-08-01T01:57:48;22.20;99.90
17174;DHT22;8702;48.130;-1.696;2022-08-01T02:00:16;22.20;99.90
17174;DHT22;8702;48.130;-1.696;2022-08-01T02:02:46;22.10;99.90
17174;DHT22;8702;48.130;-1.696;2022-08-01T02:05:14;22.00;99.90
17174;DHT22;8702;48.130;-1.696;2022-08-01T02:07:41;22.00;99.90
17174;DHT22;8702;48.130;-1.696;2022-08-01T02:10:10;22.00;99.90
17174;DHT22;8702;48.130;-1.696;2022-08-01T02:12:41;22.00;99.90
17174;DHT22;8702;48.130;-1.696;2022-08-01T02:15:11;22.00;99.90
17174;DHT22;8702;48.130;-1.696;2022-08-01T02:17:42;21.90;99.90
17174;DHT22;8702;48.130;-1.696;2022-08-01T02:20:12;22.00;99.90
17174;DHT22;8702;48.130;-1.696;2022-08-01T02:22:42;21.90;99.90
17174;DHT22;8702;48.130;-1.696;2022-08-01T02:25:15;21.90;99.90
17174;DHT22;8702;48.130;-1.696;2022-08-01T02:27:47;21.90;99.90
17174;DHT22;8702;48.130;-1.696;2022-08-01T02:30:17;21.80;99.90
17174;DHT22;8702;48.130;-1.696;2022-08-01T02:32:47;21.90;99.90
17174;DHT22;8702;48.130;-1.696;2022-08-01T02:35:22;22.00;99.90
17174;DHT22;8702;48.130;-1.696;2022-08-01T02:37:50;21.80;99.90
17174;DHT22;8702;48.130;-1.696;2022-08-01T02:40:19;21.70;99.90
17174;DHT22;8702;48.130;-1.696;2022-08-01T02:42:49;21.70;99.90
17174;DHT22;8702;48.130;-1.696;2022-08-01T02:45:18;21.70;99.90
17174;DHT22;8702;48.130;-1.696;2022-08-01T02:47:45;21.70;99.90
17174;DHT22;8702;48.130;-1.696;2022-08-01T02:50:15;21.70;99.90
17174;DHT22;8702;48.130;-1.696;2022-08-01T02:52:47;21.80;99.90
17174;DHT22;8702;48.130;-1.696;2022-08-01T02:55:15;21.90;99.90
17174;DHT22;8702;48.130;-1.696;2022-08-01T02:57:44;21.90;99.90
17174;DHT22;8702;48.130;-1.696;2022-08-01T03:00:13;21.90;99.90
17174;DHT22;8702;48.130;-1.696;2022-08-01T03:02:40;21.80;99.90
17174;DHT22;8702;48.130;-1.696;2022-08-01T03:05:08;21.70;99.90
17174;DHT22;8702;48.130;-1.696;2022-08-01T03:07:36;21.80;99.90
17174;DHT22;8702;48.130;-1.696;2022-08-01T03:10:06;21.90;99.90
17174;DHT22;8702;48.130;-1.696;2022-08-01T03:12:35;21.90;99.90
17174;DHT22;8702;48.130;-1.696;2022-08-01T03:15:05;22.00;99.90
17174;DHT22;8702;48.130;-1.696;2022-08-01T03:17:34;22.00;99.90
17174;DHT22;8702;48.130;-1.696;2022-08-01T03:20:03;21.80;99.90
17174;DHT22;8702;48.130;-1.696;2022-08-01T03:22:33;21.80;99.90
17174;DHT22;8702;48.130;-1.696;2022-08-01T03:25:01;21.50;99.90
17174;DHT22;8702;48.130;-1.696;2022-08-01T03:27:30;21.30;99.90
17174;DHT22;8702;48.130;-1.696;2022-08-01T03:29:58;21.40;99.90
17174;DHT22;8702;48.130;-1.696;2022-08-01T03:32:27;21.60;99.90
17174;DHT22;8702;48.130;-1.696;2022-08-01T03:34:54;21.80;99.90
17174;DHT22;8702;48.130;-1.696;2022-08-01T03:37:24;22.00;99.90
17174;DHT22;8702;48.130;-1.696;2022-08-01T03:39:55;21.50;99.90
17174;DHT22;8702;48.130;-1.696;2022-08-01T03:42:27;21.70;99.90
17174;DHT22;8702;48.130;-1.696;2022-08-01T03:44:59;21.70;99.90
17174;DHT22;8702;48.130;-1.696;2022-08-01T03:47:31;21.70;99.90
17174;DHT22;8702;48.130;-1.696;2022-08-01T03:50:02;21.60;99.90
17174;DHT22;8702;48.130;-1.696;2022-08-01T03:52:30;21.70;99.90
17174;DHT22;8702;48.130;-1.696;2022-08-01T03:55:01;21.70;99.90
17174;DHT22;8702;48.130;-1.696;2022-08-01T03:57:29;21.70;99.90
17174;DHT22;8702;48.130;-1.696;2022-08-01T03:59:59;21.50;99.90
17174;DHT22;8702;48.130;-1.696;2022-08-01T04:02:27;21.70;99.90
17174;DHT22;8702;48.130;-1.696;2022-08-01T04:04:54;21.80;99.90
17174;DHT22;8702;48.130;-1.696;2022-08-01T04:07:22;21.90;99.90
17174;DHT22;8702;48.130;-1.696;2022-08-01T04:09:50;21.70;99.90
17174;DHT22;8702;48.130;-1.696;2022-08-01T04:12:17;21.60;99.90
17174;DHT22;8702;48.130;-1.696;2022-08-01T04:14:44;21.70;99.90
17174;DHT22;8702;48.130;-1.696;2022-08-01T04:17:13;21.70;99.90
17174;DHT22;8702;48.130;-1.696;2022-08-01T04:19:40;21.80;99.90
17174;DHT22;8702;48.130;-1.696;2022-08-01T04:22:09;21.80;99.90
17174;DHT22;8702;48.130;-1.696;2022-08-01T04:24:36;21.50;99.90
17174;DHT22;8702;48.130;-1.696;2022-08-01T04:27:08;21.20;99.90
17174;DHT22;8702;48.130;-1.696;2022-08-01T04:29:40;21.10;99.90
17174;DHT22;8702;48.130;-1.696;2022-08-01T04:32:11;21.20;99.90
17174;DHT22;8702;48.130;-1.696;2022-08-01T04:34:41;21.20;99.90
17174;DHT22;8702;48.130;-1.696;2022-08-01T04:37:12;21.30;99.90
17174;DHT22;8702;48.130;-1.696;2022-08-01T04:39:43;21.40;99.90
17174;DHT22;8702;48.130;-1.696;2022-08-01T04:42:12;21.60;99.90
17174;DHT22;8702;48.130;-1.696;2022-08-01T04:44:41;21.70;99.90
17174;DHT22;8702;48.130;-1.696;2022-08-01T04:47:09;21.70;99.90
17174;DHT22;8702;48.130;-1.696;2022-08-01T04:49:36;21.50;99.90
17174;DHT22;8702;48.130;-1.696;2022-08-01T04:52:05;21.40;99.90
17174;DHT22;8702;48.130;-1.696;2022-08-01T04:54:34;21.70;99.90
17174;DHT22;8702;48.130;-1.696;2022-08-01T04:57:03;21.80;99.90
17174;DHT22;8702;48.130;-1.696;2022-08-01T04:59:31;21.90;99.90
17174;DHT22;8702;48.130;-1.696;2022-08-01T05:02:09;22.00;99.90
17174;DHT22;8702;48.130;-1.696;2022-08-01T05:04:36;21.90;99.90
17174;DHT22;8702;48.130;-1.696;2022-08-01T05:07:06;21.90;99.90
17174;DHT22;8702;48.130;-1.696;2022-08-01T05:09:33;21.60;99.90
17174;DHT22;8702;48.130;-1.696;2022-08-01T05:12:03;21.60;99.90
17174;DHT22;8702;48.130;-1.696;2022-08-01T05:14:30;21.40;99.90
17174;DHT22;8702;48.130;-1.696;2022-08-01T05:16:58;21.40;99.90
17174;DHT22;8702;48.130;-1.696;2022-08-01T05:19:25;21.40;99.90
17174;DHT22;8702;48.130;-1.696;2022-08-01T05:21:53;21.40;99.90
17174;DHT22;8702;48.130;-1.696;2022-08-01T05:24:21;21.60;99.90
17174;DHT22;8702;48.130;-1.696;2022-08-01T05:26:48;21.60;99.90
17174;DHT22;8702;48.130;-1.696;2022-08-01T05:29:15;21.50;99.90
17174;DHT22;8702;48.130;-1.696;2022-08-01T05:31:42;21.50;99.90
17174;DHT22;8702;48.130;-1.696;2022-08-01T05:34:09;21.50;99.90
17174;DHT22;8702;48.130;-1.696;2022-08-01T05:36:36;21.40;99.90
17174;DHT22;8702;48.130;-1.696;2022-08-01T05:39:03;21.50;99.90
17174;DHT22;8702;48.130;-1.696;2022-08-01T05:41:32;21.50;99.90
17174;DHT22;8702;48.130;-1.696;2022-08-01T05:43:59;21.60;99.90
17174;DHT22;8702;48.130;-1.696;2022-08-01T05:46:26;21.60;99.90
17174;DHT22;8702;48.130;-1.696;2022-08-01T05:48:53;21.60;99.90
17174;DHT22;8702;48.130;-1.696;2022-08-01T05:51:20;21.40;99.90
17174;DHT22;8702;48.130;-1.696;2022-08-01T05:53:47;21.40;99.90
17174;DHT22;8702;48.130;-1.696;2022-08-01T05:56:14;21.30;99.90
17174;DHT22;8702;48.130;-1.696;2022-08-01T05:58:42;21.30;99.90
17174;DHT22;8702;48.130;-1.696;2022-08-01T06:01:09;21.40;99.90
17174;DHT22;8702;48.130;-1.696;2022-08-01T06:03:36;21.30;99.90
17174;DHT22;8702;48.130;-1.696;2022-08-01T06:06:04;21.30;99.90
17174;DHT22;8702;48.130;-1.696;2022-08-01T06:08:31;21.40;99.90
17174;DHT22;8702;48.130;-1.696;2022-08-01T06:10:58;21.40;99.90
17174;DHT22;8702;48.130;-1.696;2022-08-01T06:13:25;21.40;99.90
17174;DHT22;8702;48.130;-1.696;2022-08-01T06:15:54;21.40;99.90
17174;DHT22;8702;48.130;-1.696;2022-08-01T06:18:21;21.40;99.90
17174;DHT22;8702;48.130;-1.696;2022-08-01T06:20:49;21.30;99.90
17174;DHT22;8702;48.130;-1.696;2022-08-01T06:23:17;21.30;99.90
17174;DHT22;8702;48.130;-1.696;2022-08-01T06:25:44;21.20;99.90
17174;DHT22;8702;48.130;-1.696;2022-08-01T06:28:11;21.20;99.90
17174;DHT22;8702;48.130;-1.696;2022-08-01T06:30:38;21.20;99.90
17174;DHT22;8702;48.130;-1.696;2022-08-01T06:33:06;22.00;99.90
17174;DHT22;8702;48.130;-1.696;2022-08-01T06:35:34;21.20;99.90
17174;DHT22;8702;48.130;-1.696;2022-08-01T06:38:02;21.20;99.90
17174;DHT22;8702;48.130;-1.696;2022-08-01T06:40:29;21.20;99.90
17174;DHT22;8702;48.130;-1.696;2022-08-01T06:42:56;21.30;99.90
17174;DHT22;8702;48.130;-1.696;2022-08-01T06:45:23;21.20;99.90
17174;DHT22;8702;48.130;-1.696;2022-08-01T06:47:51;21.20;99.90
17174;DHT22;8702;48.130;-1.696;2022-08-01T06:50:19;21.20;99.90
17174;DHT22;8702;48.130;-1.696;2022-08-01T06:52:47;21.20;99.90
17174;DHT22;8702;48.130;-1.696;2022-08-01T06:55:14;21.30;99.90
17174;DHT22;8702;48.130;-1.696;2022-08-01T06:57:48;21.30;99.90
17174;DHT22;8702;48.130;-1.696;2022-08-01T07:00:20;21.30;99.90
17174;DHT22;8702;48.130;-1.696;2022-08-01T07:02:48;21.30;99.90
17174;DHT22;8702;48.130;-1.696;2022-08-01T07:05:15;21.30;99.90
17174;DHT22;8702;48.130;-1.696;2022-08-01T07:07:44;21.30;99.90
17174;DHT22;8702;48.130;-1.696;2022-08-01T07:10:11;21.30;99.90
17174;DHT22;8702;48.130;-1.696;2022-08-01T07:12:38;21.30;99.90
17174;DHT22;8702;48.130;-1.696;2022-08-01T07:15:07;21.30;99.90
17174;DHT22;8702;48.130;-1.696;2022-08-01T07:17:37;21.30;99.90
17174;DHT22;8702;48.130;-1.696;2022-08-01T07:20:06;21.40;99.90
17174;DHT22;8702;48.130;-1.696;2022-08-01T07:22:33;21.40;99.90
17174;DHT22;8702;48.130;-1.696;2022-08-01T07:25:02;21.50;99.90
17174;DHT22;8702;48.130;-1.696;2022-08-01T07:27:30;21.50;99.90
17174;DHT22;8702;48.130;-1.696;2022-08-01T07:29:57;21.50;99.90
17174;DHT22;8702;48.130;-1.696;2022-08-01T07:32:24;21.50;99.90
17174;DHT22;8702;48.130;-1.696;2022-08-01T07:34:51;21.50;99.90
17174;DHT22;8702;48.130;-1.696;2022-08-01T07:37:18;21.50;99.90
17174;DHT22;8702;48.130;-1.696;2022-08-01T07:39:45;21.50;99.90
17174;DHT22;8702;48.130;-1.696;2022-08-01T07:42:13;21.50;99.90
17174;DHT22;8702;48.130;-1.696;2022-08-01T07:44:40;21.60;99.90
17174;DHT22;8702;48.130;-1.696;2022-08-01T07:47:07;21.60;99.90
17174;DHT22;8702;48.130;-1.696;2022-08-01T07:49:35;21.60;99.90
17174;DHT22;8702;48.130;-1.696;2022-08-01T07:52:02;21.60;99.90
17174;DHT22;8702;48.130;-1.696;2022-08-01T07:54:29;21.60;99.90
17174;DHT22;8702;48.130;-1.696;2022-08-01T07:56:56;21.70;99.90
17174;DHT22;8702;48.130;-1.696;2022-08-01T07:59:24;21.70;99.90
17174;DHT22;8702;48.130;-1.696;2022-08-01T08:01:51;21.70;99.90
17174;DHT22;8702;48.130;-1.696;2022-08-01T08:04:18;21.70;99.90
17174;DHT22;8702;48.130;-1.696;2022-08-01T08:06:45;21.70;99.90
17174;DHT22;8702;48.130;-1.696;2022-08-01T08:09:14;21.70;99.90
17174;DHT22;8702;48.130;-1.696;2022-08-01T08:11:42;21.70;99.90
17174;DHT22;8702;48.130;-1.696;2022-08-01T08:14:10;21.60;99.90
17174;DHT22;8702;48.130;-1.696;2022-08-01T08:16:38;21.70;99.90
17174;DHT22;8702;48.130;-1.696;2022-08-01T08:19:05;21.70;99.90
17174;DHT22;8702;48.130;-1.696;2022-08-01T08:21:32;21.70;99.90
17174;DHT22;8702;48.130;-1.696;2022-08-01T08:23:59;21.80;99.90
17174;DHT22;8702;48.130;-1.696;2022-08-01T08:26:44;21.90;99.90
17174;DHT22;8702;48.130;-1.696;2022-08-01T08:29:11;21.90;99.90
17174;DHT22;8702;48.130;-1.696;2022-08-01T08:31:39;21.90;99.90
17174;DHT22;8702;48.130;-1.696;2022-08-01T08:34:06;21.90;99.90
17174;DHT22;8702;48.130;-1.696;2022-08-01T08:36:33;21.90;99.90
17174;DHT22;8702;48.130;-1.696;2022-08-01T08:39:01;21.90;99.90
17174;DHT22;8702;48.130;-1.696;2022-08-01T08:41:29;21.90;99.90
17174;DHT22;8702;48.130;-1.696;2022-08-01T08:43:56;21.90;99.90
17174;DHT22;8702;48.130;-1.696;2022-08-01T08:46:25;22.00;99.90
17174;DHT22;8702;48.130;-1.696;2022-08-01T08:48:55;22.10;99.90
17174;DHT22;8702;48.130;-1.696;2022-08-01T08:51:25;22.10;99.90
17174;DHT22;8702;48.130;-1.696;2022-08-01T08:53:55;21.90;99.90
17174;DHT22;8702;48.130;-1.696;2022-08-01T08:56:24;22.00;99.90
17174;DHT22;8702;48.130;-1.696;2022-08-01T08:58:51;22.10;99.90
17174;DHT22;8702;48.130;-1.696;2022-08-01T09:01:18;22.10;99.90
17174;DHT22;8702;48.130;-1.696;2022-08-01T09:03:45;22.10;99.90
17174;DHT22;8702;48.130;-1.696;2022-08-01T09:06:15;22.30;99.90
17174;DHT22;8702;48.130;-1.696;2022-08-01T09:08:42;22.40;99.90
17174;DHT22;8702;48.130;-1.696;2022-08-01T09:11:09;22.40;99.90
17174;DHT22;8702;48.130;-1.696;2022-08-01T09:13:36;22.40;99.70
17174;DHT22;8702;48.130;-1.696;2022-08-01T09:16:05;22.40;99.70
17174;DHT22;8702;48.130;-1.696;2022-08-01T09:18:33;22.50;99.80
17174;DHT22;8702;48.130;-1.696;2022-08-01T09:21:15;22.40;99.60
17174;DHT22;8702;48.130;-1.696;2022-08-01T09:23:45;22.50;99.60
17174;DHT22;8702;48.130;-1.696;2022-08-01T09:26:13;22.40;99.60
17174;DHT22;8702;48.130;-1.696;2022-08-01T09:28:41;22.50;99.70
17174;DHT22;8702;48.130;-1.696;2022-08-01T09:31:10;22.60;99.50
17174;DHT22;8702;48.130;-1.696;2022-08-01T09:33:48;22.70;99.40
17174;DHT22;8702;48.130;-1.696;2022-08-01T09:36:17;22.80;99.40
17174;DHT22;8702;48.130;-1.696;2022-08-01T09:38:44;22.80;99.00
17174;DHT22;8702;48.130;-1.696;2022-08-01T09:41:11;22.70;99.00
17174;DHT22;8702;48.130;-1.696;2022-08-01T09:43:38;22.70;99.10
17174;DHT22;8702;48.130;-1.696;2022-08-01T09:46:09;22.70;99.10
17174;DHT22;8702;48.130;-1.696;2022-08-01T09:48:37;22.70;99.10
17174;DHT22;8702;48.130;-1.696;2022-08-01T09:51:06;22.70;99.20
17174;DHT22;8702;48.130;-1.696;2022-08-01T09:53:48;22.80;99.00
17174;DHT22;8702;48.130;-1.696;2022-08-01T09:56:16;23.00;98.70
17174;DHT22;8702;48.130;-1.696;2022-08-01T09:58:50;23.00;98.80
17174;DHT22;8702;48.130;-1.696;2022-08-01T10:01:20;23.00;98.70
17174;DHT22;8702;48.130;-1.696;2022-08-01T10:03:52;23.10;98.80
17174;DHT22;8702;48.130;-1.696;2022-08-01T10:06:30;23.20;98.60
17174;DHT22;8702;48.130;-1.696;2022-08-01T10:08:58;23.20;98.70
17174;DHT22;8702;48.130;-1.696;2022-08-01T10:11:26;23.30;98.50
17174;DHT22;8702;48.130;-1.696;2022-08-01T10:13:53;23.20;98.20
17174;DHT22;8702;48.130;-1.696;2022-08-01T10:16:21;23.20;98.00
17174;DHT22;8702;48.130;-1.696;2022-08-01T10:18:48;23.20;98.20
17174;DHT22;8702;48.130;-1.696;2022-08-01T10:21:16;23.30;98.10
17174;DHT22;8702;48.130;-1.696;2022-08-01T10:23:44;23.30;98.00
17174;DHT22;8702;48.130;-1.696;2022-08-01T10:26:14;23.30;98.00
17174;DHT22;8702;48.130;-1.696;2022-08-01T10:28:41;23.40;97.80
17174;DHT22;8702;48.130;-1.696;2022-08-01T10:31:11;23.50;98.10
17174;DHT22;8702;48.130;-1.696;2022-08-01T10:33:39;23.30;97.70
17174;DHT22;8702;48.130;-1.696;2022-08-01T10:36:08;23.40;97.90
17174;DHT22;8702;48.130;-1.696;2022-08-01T10:38:35;23.40;97.90
17174;DHT22;8702;48.130;-1.696;2022-08-01T10:41:03;23.50;97.80
17174;DHT22;8702;48.130;-1.696;2022-08-01T10:43:32;23.50;97.80
17174;DHT22;8702;48.130;-1.696;2022-08-01T10:45:59;23.60;97.60
17174;DHT22;8702;48.130;-1.696;2022-08-01T10:48:31;23.60;97.60
17174;DHT22;8702;48.130;-1.696;2022-08-01T10:51:04;23.70;97.50
17174;DHT22;8702;48.130;-1.696;2022-08-01T10:53:31;23.70;97.60
17174;DHT22;8702;48.130;-1.696;2022-08-01T10:56:00;23.70;97.50
17174;DHT22;8702;48.130;-1.696;2022-08-01T10:58:29;23.70;97.40
17174;DHT22;8702;48.130;-1.696;2022-08-01T11:01:19;23.70;97.50
17174;DHT22;8702;48.130;-1.696;2022-08-01T11:04:07;23.70;97.30
17174;DHT22;8702;48.130;-1.696;2022-08-01T11:07:05;23.80;97.40
17174;DHT22;8702;48.130;-1.696;2022-08-01T11:09:39;23.80;97.00
17174;DHT22;8702;48.130;-1.696;2022-08-01T11:12:09;23.70;97.10
17174;DHT22;8702;48.130;-1.696;2022-08-01T11:17:39;23.80;96.90
17174;DHT22;8702;48.130;-1.696;2022-08-01T11:20:10;23.90;96.90
17174;DHT22;8702;48.130;-1.696;2022-08-01T11:26:09;23.90;96.70
17174;DHT22;8702;48.130;-1.696;2022-08-01T11:28:36;24.00;96.80
17174;DHT22;8702;48.130;-1.696;2022-08-01T11:31:25;24.00;96.90
17174;DHT22;8702;48.130;-1.696;2022-08-01T11:33:54;24.00;96.50
17174;DHT22;8702;48.130;-1.696;2022-08-01T11:36:21;24.00;96.70
17174;DHT22;8702;48.130;-1.696;2022-08-01T11:38:50;24.00;96.60
17174;DHT22;8702;48.130;-1.696;2022-08-01T11:41:38;24.00;96.70
17174;DHT22;8702;48.130;-1.696;2022-08-01T11:44:06;24.10;96.60
17174;DHT22;8702;48.130;-1.696;2022-08-01T11:46:56;24.10;96.60
17174;DHT22;8702;48.130;-1.696;2022-08-01T11:49:46;24.20;96.40
17174;DHT22;8702;48.130;-1.696;2022-08-01T11:52:16;24.30;96.40
17174;DHT22;8702;48.130;-1.696;2022-08-01T11:54:46;24.30;96.50
17174;DHT22;8702;48.130;-1.696;2022-08-01T11:57:14;24.20;96.20
17174;DHT22;8702;48.130;-1.696;2022-08-01T11:59:43;24.30;96.30
17174;DHT22;8702;48.130;-1.696;2022-08-01T12:02:31;24.30;96.30
17174;DHT22;8702;48.130;-1.696;2022-08-01T12:05:02;24.40;96.30
17174;DHT22;8702;48.130;-1.696;2022-08-01T12:07:31;24.50;96.20
17174;DHT22;8702;48.130;-1.696;2022-08-01T12:10:00;24.40;96.10
17174;DHT22;8702;48.130;-1.696;2022-08-01T12:12:28;24.50;96.20
17174;DHT22;8702;48.130;-1.696;2022-08-01T12:14:57;24.50;96.00
17174;DHT22;8702;48.130;-1.696;2022-08-01T12:17:29;24.40;96.20
17174;DHT22;8702;48.130;-1.696;2022-08-01T12:19:56;24.40;96.10
17174;DHT22;8702;48.130;-1.696;2022-08-01T12:22:24;24.40;96.20
17174;DHT22;8702;48.130;-1.696;2022-08-01T12:24:51;24.40;96.20
17174;DHT22;8702;48.130;-1.696;2022-08-01T12:27:26;24.40;96.20
17174;DHT22;8702;48.130;-1.696;2022-08-01T12:29:54;24.50;96.20
17174;DHT22;8702;48.130;-1.696;2022-08-01T12:32:23;24.50;96.20
17174;DHT22;8702;48.130;-1.696;2022-08-01T12:34:51;24.60;96.10
17174;DHT22;8702;48.130;-1.696;2022-08-01T12:37:19;24.50;95.90
17174;DHT22;8702;48.130;-1.696;2022-08-01T12:39:47;24.50;96.10
17174;DHT22;8702;48.130;-1.696;2022-08-01T12:42:15;24.50;96.00
17174;DHT22;8702;48.130;-1.696;2022-08-01T12:44:43;24.70;96.10
17174;DHT22;8702;48.130;-1.696;2022-08-01T12:47:11;24.70;95.90
17174;DHT22;8702;48.130;-1.696;2022-08-01T12:49:40;24.80;95.90
17174;DHT22;8702;48.130;-1.696;2022-08-01T12:52:08;24.80;95.80
17174;DHT22;8702;48.130;-1.696;2022-08-01T12:55:02;24.80;95.70
17174;DHT22;8702;48.130;-1.696;2022-08-01T12:57:29;24.90;95.60
17174;DHT22;8702;48.130;-1.696;2022-08-01T13:00:08;24.80;95.70
17174;DHT22;8702;48.130;-1.696;2022-08-01T13:02:35;24.70;95.80
17174;DHT22;8702;48.130;-1.696;2022-08-01T13:05:03;24.90;95.70
17174;DHT22;8702;48.130;-1.696;2022-08-01T13:07:38;24.80;95.40
17174;DHT22;8702;48.130;-1.696;2022-08-01T13:10:08;24.70;95.50
17174;DHT22;8702;48.130;-1.696;2022-08-01T13:12:36;24.80;95.70
17174;DHT22;8702;48.130;-1.696;2022-08-01T13:15:26;24.90;95.70
17174;DHT22;8702;48.130;-1.696;2022-08-01T13:17:56;25.00;95.50
17174;DHT22;8702;48.130;-1.696;2022-08-01T13:20:26;24.90;95.50
17174;DHT22;8702;48.130;-1.696;2022-08-01T13:22:54;25.00;95.60
17174;DHT22;8702;48.130;-1.696;2022-08-01T13:25:22;25.00;95.40
17174;DHT22;8702;48.130;-1.696;2022-08-01T13:27:49;25.00;95.50
17174;DHT22;8702;48.130;-1.696;2022-08-01T13:30:36;25.00;95.40
17174;DHT22;8702;48.130;-1.696;2022-08-01T13:33:03;25.10;95.30
17174;DHT22;8702;48.130;-1.696;2022-08-01T13:35:30;25.20;95.50
17174;DHT22;8702;48.130;-1.696;2022-08-01T13:37:57;25.40;95.40
17174;DHT22;8702;48.130;-1.696;2022-08-01T13:40:27;25.40;95.30
17174;DHT22;8702;48.130;-1.696;2022-08-01T13:42:54;25.40;94.90
17174;DHT22;8702;48.130;-1.696;2022-08-01T13:45:22;25.40;95.00
17174;DHT22;8702;48.130;-1.696;2022-08-01T13:47:49;25.40;94.90
17174;DHT22;8702;48.130;-1.696;2022-08-01T13:50:16;25.50;94.90
17174;DHT22;8702;48.130;-1.696;2022-08-01T13:52:43;25.50;94.70
17174;DHT22;8702;48.130;-1.696;2022-08-01T13:55:10;25.50;94.80
17174;DHT22;8702;48.130;-1.696;2022-08-01T13:57:39;25.60;94.80
17174;DHT22;8702;48.130;-1.696;2022-08-01T14:00:07;25.60;94.50
17174;DHT22;8702;48.130;-1.696;2022-08-01T14:02:35;25.60;94.60
17174;DHT22;8702;48.130;-1.696;2022-08-01T14:05:02;25.60;94.60
17174;DHT22;8702;48.130;-1.696;2022-08-01T14:07:29;25.70;94.40
17174;DHT22;8702;48.130;-1.696;2022-08-01T14:09:57;25.70;94.70
17174;DHT22;8702;48.130;-1.696;2022-08-01T14:12:24;25.90;94.60
17174;DHT22;8702;48.130;-1.696;2022-08-01T14:14:52;25.80;94.30
17174;DHT22;8702;48.130;-1.696;2022-08-01T14:17:19;25.90;94.30
17174;DHT22;8702;48.130;-1.696;2022-08-01T14:19:46;25.90;94.10
17174;DHT22;8702;48.130;-1.696;2022-08-01T14:22:13;25.90;94.30
17174;DHT22;8702;48.130;-1.696;2022-08-01T14:24:40;26.00;94.20
17174;DHT22;8702;48.130;-1.696;2022-08-01T14:27:07;26.00;94.10
17174;DHT22;8702;48.130;-1.696;2022-08-01T14:29:34;26.20;94.00
17174;DHT22;8702;48.130;-1.696;2022-08-01T14:32:02;26.20;93.90
17174;DHT22;8702;48.130;-1.696;2022-08-01T14:34:29;26.30;93.80
17174;DHT22;8702;48.130;-1.696;2022-08-01T14:36:56;26.30;93.70
17174;DHT22;8702;48.130;-1.696;2022-08-01T14:39:23;26.40;93.70
17174;DHT22;8702;48.130;-1.696;2022-08-01T14:41:50;26.50;93.70
17174;DHT22;8702;48.130;-1.696;2022-08-01T14:44:17;26.50;93.20
17174;DHT22;8702;48.130;-1.696;2022-08-01T14:46:44;26.50;93.30
17174;DHT22;8702;48.130;-1.696;2022-08-01T14:49:15;26.60;93.20
17174;DHT22;8702;48.130;-1.696;2022-08-01T14:51:42;26.60;93.20
17174;DHT22;8702;48.130;-1.696;2022-08-01T14:54:09;26.70;93.30
17174;DHT22;8702;48.130;-1.696;2022-08-01T14:56:36;26.80;93.00
17174;DHT22;8702;48.130;-1.696;2022-08-01T14:59:03;26.80;92.70
17174;DHT22;8702;48.130;-1.696;2022-08-01T15:01:29;26.70;92.90
17174;DHT22;8702;48.130;-1.696;2022-08-01T15:03:57;26.90;93.10
17174;DHT22;8702;48.130;-1.696;2022-08-01T15:06:25;26.90;92.60
17174;DHT22;8702;48.130;-1.696;2022-08-01T15:08:52;26.90;92.30
17174;DHT22;8702;48.130;-1.696;2022-08-01T15:11:19;26.90;92.60
17174;DHT22;8702;48.130;-1.696;2022-08-01T15:13:46;27.10;92.60
17174;DHT22;8702;48.130;-1.696;2022-08-01T15:16:34;27.10;92.20
17174;DHT22;8702;48.130;-1.696;2022-08-01T15:19:01;27.10;92.20
17174;DHT22;8702;48.130;-1.696;2022-08-01T15:21:30;27.20;92.50
17174;DHT22;8702;48.130;-1.696;2022-08-01T15:23:57;27.20;92.30
17174;DHT22;8702;48.130;-1.696;2022-08-01T15:26:24;27.30;92.20
17174;DHT22;8702;48.130;-1.696;2022-08-01T15:28:51;27.50;92.40
17174;DHT22;8702;48.130;-1.696;2022-08-01T15:31:18;27.40;91.90
17174;DHT22;8702;48.130;-1.696;2022-08-01T15:33:45;27.40;92.00
17174;DHT22;8702;48.130;-1.696;2022-08-01T15:36:12;27.50;92.00
17174;DHT22;8702;48.130;-1.696;2022-08-01T15:38:40;27.60;91.80
17174;DHT22;8702;48.130;-1.696;2022-08-01T15:41:07;27.70;91.80
17174;DHT22;8702;48.130;-1.696;2022-08-01T15:43:34;27.90;91.80
17174;DHT22;8702;48.130;-1.696;2022-08-01T15:46:03;28.00;91.50
17174;DHT22;8702;48.130;-1.696;2022-08-01T15:48:31;28.10;91.50
17174;DHT22;8702;48.130;-1.696;2022-08-01T15:50:57;28.30;91.80